createdAt,value
2019-04-10T00:01:37.649Z,45.78
2019-04-10T00:04:31.504Z,36.28
2019-04-10T00:10:30.637Z,33.38
2019-04-10T00:13:24.641Z,28.95
2019-04-10T00:16:18.134Z,29.85
2019-04-10T00:19:12.807Z,35.90
2019-04-10T00:22:06.297Z,43.08
2019-04-10T00:25:00.181Z,38.53
2019-04-10T00:27:54.857Z,44.10
2019-04-10T00:30:49.390Z,46.45
2019-04-10T00:33:43.795Z,38.17
2019-04-10T00:36:49.065Z,38.17
2019-04-10T00:39:45.358Z,42.08
2019-04-10T00:42:50.099Z,35.73
2019-04-10T00:45:44.014Z,50.23
2019-04-10T00:48:37.997Z,56.70
2019-04-10T00:51:31.309Z,62.13
2019-04-10T00:54:23.739Z,43.30
2019-04-10T00:57:19.224Z,43.23
2019-04-10T01:00:17.245Z,44.88
2019-04-10T01:03:21.754Z,45.73
2019-04-10T01:06:16.304Z,60.03
2019-04-10T01:09:10.387Z,54.60
2019-04-10T01:12:05.686Z,50.08
2019-04-10T01:14:58.186Z,48.73
2019-04-10T01:17:51.342Z,65.85
2019-04-10T01:20:44.657Z,49.53
2019-04-10T01:23:39.351Z,44.42
2019-04-10T01:26:33.339Z,40.65
2019-04-10T01:29:27.920Z,43.10
2019-04-10T01:32:34.182Z,55.60
2019-04-10T01:35:22.745Z,49.08
2019-04-10T01:38:17.597Z,50.78
2019-04-10T01:41:12.441Z,43.68
2019-04-10T01:44:05.651Z,62.65
2019-04-10T01:47:12.985Z,44.08
2019-04-10T01:50:06.251Z,52.05
2019-04-10T01:52:59.567Z,40.55
2019-04-10T01:55:53.555Z,50.35
2019-04-10T01:58:47.680Z,40.90
2019-04-10T02:01:44.979Z,48.08
2019-04-10T02:04:39.561Z,46.55
2019-04-10T02:07:31.937Z,42.17
2019-04-10T02:10:25.919Z,37.33
2019-04-10T02:13:31.647Z,39.18
2019-04-10T02:19:42.676Z,43.13
2019-04-10T02:22:36.313Z,39.35
2019-04-10T02:25:30.599Z,41.68
2019-04-10T02:28:20.727Z,37.45
2019-04-10T02:31:14.605Z,40.60
2019-04-10T02:34:07.520Z,40.15
2019-04-10T02:37:00.639Z,35.45
2019-04-10T02:39:57.813Z,41.77
2019-04-10T02:42:47.385Z,40.85
2019-04-10T02:45:42.469Z,32.33
2019-04-10T02:48:34.038Z,42.35
2019-04-10T02:51:28.504Z,40.08
2019-04-10T02:54:22.594Z,35.52
2019-04-10T02:57:19.071Z,31.17
2019-04-10T03:00:14.110Z,31.60
2019-04-10T03:03:09.346Z,35.92
2019-04-10T03:05:58.706Z,45.60
2019-04-10T03:09:08.610Z,38.55
2019-04-10T03:11:51.944Z,37.65
2019-04-10T03:14:47.477Z,32.35
2019-04-10T03:17:52.460Z,28.98
2019-04-10T03:20:45.446Z,26.80
2019-04-10T03:23:50.660Z,30.40
2019-04-10T03:26:43.765Z,32.85
2019-04-10T03:29:38.006Z,46.73
2019-04-10T03:32:51.681Z,36.30
2019-04-10T03:36:00.376Z,29.48
2019-04-10T03:39:04.860Z,33.63
2019-04-10T03:41:55.184Z,35.25
2019-04-10T03:44:54.827Z,31.48
2019-04-10T03:47:41.853Z,39.58
2019-04-10T03:50:34.653Z,40.73
2019-04-10T03:53:29.908Z,53.87
2019-04-10T03:56:23.879Z,40.73
2019-04-10T04:02:35.953Z,38.75
2019-04-10T04:05:26.695Z,37.50
2019-04-10T04:08:19.405Z,40.65
2019-04-10T04:11:13.452Z,39.08
2019-04-10T04:14:06.263Z,58.70
2019-04-10T04:16:59.838Z,35.85
2019-04-10T04:19:53.383Z,55.30
2019-04-10T04:25:54.819Z,39.10
2019-04-10T04:28:47.851Z,41.68
2019-04-10T04:31:42.008Z,36.38
2019-04-10T04:34:34.772Z,38.42
2019-04-10T04:37:28.052Z,44.42
2019-04-10T04:40:23.810Z,45.80
2019-04-10T04:43:16.679Z,44.05
2019-04-10T04:46:21.809Z,38.90
2019-04-10T04:49:11.534Z,41.40
2019-04-10T04:52:06.915Z,41.63
2019-04-10T04:54:59.180Z,44.98
2019-04-10T04:57:53.485Z,42.90
2019-04-10T05:00:46.576Z,45.03
2019-04-10T05:03:40.665Z,49.15
2019-04-10T05:06:35.044Z,46.50
2019-04-10T05:09:34.360Z,53.83
2019-04-10T05:12:21.112Z,69.05
2019-04-10T05:15:18.798Z,50.75
2019-04-10T05:18:12.435Z,41.98
2019-04-10T05:21:05.392Z,59.95
2019-04-10T05:23:59.698Z,44.95
2019-04-10T05:26:53.486Z,39.98
2019-04-10T05:29:47.629Z,42.20
2019-04-10T05:32:41.799Z,47.23
2019-04-10T05:35:35.097Z,44.55
2019-04-10T05:38:29.135Z,51.48
2019-04-10T05:41:29.836Z,48.30
2019-04-10T05:44:23.612Z,44.77
2019-04-10T05:47:17.772Z,49.35
2019-04-10T05:50:11.074Z,48.65
2019-04-10T05:53:04.887Z,50.25
2019-04-10T05:55:57.977Z,47.23
2019-04-10T05:58:51.758Z,50.35
2019-04-10T06:01:45.744Z,46.25
2019-04-10T06:04:39.158Z,49.00
2019-04-10T06:07:32.972Z,60.88
2019-04-10T06:10:22.452Z,53.87
2019-04-10T06:13:17.199Z,53.48
2019-04-10T06:16:11.833Z,55.70
2019-04-10T06:19:04.432Z,51.58
2019-04-10T06:22:00.843Z,54.35
2019-04-10T06:25:01.042Z,52.85
2019-04-10T06:27:54.354Z,68.22
2019-04-10T06:30:48.082Z,63.28
2019-04-10T06:33:38.932Z,47.62
2019-04-10T06:36:33.505Z,66.12
2019-04-10T06:39:31.039Z,57.67
2019-04-10T06:42:24.516Z,52.43
2019-04-10T06:48:23.916Z,58.15
2019-04-10T06:51:19.872Z,56.05
2019-04-10T06:54:12.930Z,48.73
2019-04-10T06:57:08.286Z,42.30
2019-04-10T07:03:17.116Z,32.83
2019-04-10T07:06:35.831Z,26.45
2019-04-10T07:09:21.445Z,24.32
2019-04-10T07:12:12.406Z,25.15
2019-04-10T07:15:22.202Z,25.80
2019-04-10T07:18:16.951Z,21.82
2019-04-10T07:21:06.428Z,24.72
2019-04-10T07:27:33.845Z,20.43
2019-04-10T07:30:26.014Z,20.65
2019-04-10T07:33:19.193Z,21.17
2019-04-10T07:36:09.590Z,19.30
2019-04-10T07:39:01.488Z,14.78
2019-04-10T07:41:53.899Z,18.27
2019-04-10T07:44:46.964Z,21.48
2019-04-10T07:47:42.141Z,22.62
2019-04-10T07:50:37.099Z,20.25
2019-04-10T07:53:30.967Z,24.65
2019-04-10T07:56:20.934Z,20.50
2019-04-10T07:59:13.575Z,27.22
2019-04-10T08:02:05.515Z,22.37
2019-04-10T08:04:56.047Z,20.20
2019-04-10T08:07:45.785Z,18.75
2019-04-10T08:10:41.187Z,24.60
2019-04-10T08:13:33.694Z,25.90
2019-04-10T08:16:28.295Z,25.25
2019-04-10T08:19:24.829Z,22.50
2019-04-10T08:22:20.183Z,30.72
2019-04-10T08:25:14.170Z,31.30
2019-04-10T08:28:09.454Z,23.07
2019-04-10T08:31:02.774Z,34.90
2019-04-10T08:33:59.667Z,27.93
2019-04-10T08:36:55.558Z,27.27
2019-04-10T08:39:49.737Z,29.32
2019-04-10T08:42:44.999Z,34.40
2019-04-10T08:45:44.121Z,33.58
2019-04-10T08:51:36.944Z,32.50
2019-04-10T08:54:30.097Z,48.20
2019-04-10T08:57:23.052Z,36.25
2019-04-10T09:00:16.622Z,38.70
2019-04-10T09:03:10.824Z,39.92
2019-04-10T09:06:05.014Z,40.67
2019-04-10T09:08:59.258Z,40.48
2019-04-10T09:11:47.828Z,37.45
2019-04-10T09:14:41.903Z,41.53
2019-04-10T09:17:35.725Z,53.55
2019-04-10T09:20:26.773Z,50.58
2019-04-10T09:23:42.596Z,40.95
2019-04-10T09:26:24.487Z,54.70
2019-04-10T09:29:23.204Z,45.90
2019-04-10T09:32:15.613Z,53.05
2019-04-10T09:38:18.763Z,57.48
2019-04-10T09:41:11.858Z,54.50
2019-04-10T09:44:12.277Z,57.90
2019-04-10T09:47:05.459Z,54.50
2019-04-10T09:53:10.828Z,59.93
2019-04-10T09:56:05.617Z,56.92
2019-04-10T09:58:58.924Z,65.17
2019-04-10T10:01:52.808Z,52.08
2019-04-10T10:04:45.998Z,57.15
2019-04-10T10:07:39.044Z,61.85
2019-04-10T10:10:35.771Z,53.13
2019-04-10T10:13:27.824Z,53.40
2019-04-10T10:16:32.383Z,57.67
2019-04-10T10:19:26.021Z,49.23
2019-04-10T10:22:33.484Z,53.85
2019-04-10T10:25:25.623Z,56.58
2019-04-10T10:28:15.811Z,42.85
2019-04-10T10:31:10.207Z,45.73
2019-04-10T10:34:03.884Z,54.30
2019-04-10T10:36:57.928Z,46.28
2019-04-10T10:39:54.903Z,44.70
2019-04-10T10:42:50.364Z,42.78
2019-04-10T10:48:51.697Z,43.95
2019-04-10T10:51:40.016Z,43.78
2019-04-10T10:54:33.072Z,48.45
2019-04-10T10:57:39.590Z,41.60
2019-04-10T11:06:55.353Z,41.83
2019-04-10T11:09:40.238Z,41.55
2019-04-10T11:12:34.126Z,41.33
2019-04-10T11:15:27.861Z,45.43
2019-04-10T11:18:22.154Z,38.73
2019-04-10T11:21:16.842Z,36.10
2019-04-10T11:24:10.824Z,43.02
2019-04-10T11:27:09.875Z,41.73
2019-04-10T11:33:28.400Z,46.20
2019-04-10T11:36:21.875Z,40.90
2019-04-10T11:39:21.829Z,47.00
2019-04-10T11:42:06.713Z,44.85
2019-04-10T11:44:59.377Z,39.78
2019-04-10T11:47:52.857Z,42.33
2019-04-10T11:50:46.381Z,43.13
2019-04-10T11:53:53.537Z,40.35
2019-04-10T11:56:43.031Z,42.85
2019-04-10T11:59:37.912Z,44.85
2019-04-10T12:02:32.229Z,48.50
2019-04-10T12:05:25.473Z,47.90
2019-04-10T12:11:15.485Z,41.40
2019-04-10T12:14:05.041Z,42.05
2019-04-10T12:16:58.744Z,43.13
2019-04-10T12:19:52.092Z,42.75
2019-04-10T12:22:46.179Z,39.45
2019-04-10T12:25:41.233Z,41.80
2019-04-10T12:28:36.018Z,44.20
2019-04-10T12:31:30.131Z,44.42
2019-04-10T12:34:22.514Z,40.90
2019-04-10T12:37:17.500Z,39.65
2019-04-10T12:40:11.847Z,40.50
2019-04-10T12:43:04.997Z,45.65
2019-04-10T12:45:58.039Z,44.83
2019-04-10T12:48:52.706Z,43.10
2019-04-10T12:51:46.894Z,42.75
2019-04-10T12:54:47.058Z,42.53
2019-04-10T12:57:41.375Z,39.25
2019-04-10T13:00:38.109Z,40.65
2019-04-10T13:03:50.157Z,42.78
2019-04-10T13:06:44.284Z,45.65
2019-04-10T13:09:36.515Z,40.95
2019-04-10T13:12:31.052Z,38.48
2019-04-10T13:15:21.301Z,38.98
2019-04-10T13:18:14.333Z,34.23
2019-04-10T13:21:08.488Z,39.85
2019-04-10T13:24:03.577Z,42.05
2019-04-10T13:26:56.538Z,35.45
2019-04-10T13:29:46.702Z,37.95
2019-04-10T13:32:40.289Z,33.53
2019-04-10T13:35:34.411Z,37.20
2019-04-10T13:38:34.469Z,34.65
2019-04-10T13:41:26.175Z,43.68
2019-04-10T13:44:20.846Z,38.25
2019-04-10T13:47:20.321Z,42.93
2019-04-10T13:53:24.609Z,36.40
2019-04-10T13:56:19.113Z,38.70
2019-04-10T13:59:13.855Z,41.95
2019-04-10T14:02:17.376Z,40.05
2019-04-10T14:08:48.305Z,40.17
2019-04-10T14:11:24.897Z,42.73
2019-04-10T14:14:18.230Z,39.40
2019-04-10T14:17:11.082Z,35.50
2019-04-10T14:20:04.733Z,40.43
2019-04-10T14:23:18.135Z,44.00
2019-04-10T14:26:46.400Z,39.60
2019-04-10T14:29:35.728Z,36.00
2019-04-10T14:32:33.766Z,36.68
2019-04-10T14:38:35.374Z,35.00
2019-04-10T14:41:29.578Z,43.25
2019-04-10T14:44:23.316Z,43.45
2019-04-10T14:47:17.155Z,38.25
2019-04-10T14:50:10.941Z,40.55
2019-04-10T14:53:05.549Z,42.73
2019-04-10T14:55:58.324Z,40.90
2019-04-10T14:58:47.604Z,34.67
2019-04-10T15:01:41.827Z,34.53
2019-04-10T15:04:35.311Z,36.50
2019-04-10T15:10:37.946Z,42.30
2019-04-10T15:13:42.509Z,35.85
2019-04-10T15:16:35.566Z,36.13
2019-04-10T15:19:29.155Z,41.40
2019-04-10T15:22:23.496Z,42.25
2019-04-10T15:25:28.305Z,35.70
2019-04-10T15:28:21.525Z,34.20
2019-04-10T15:31:17.301Z,39.75
2019-04-10T15:34:16.125Z,37.85
2019-04-10T15:37:08.788Z,45.38
2019-04-10T15:40:12.249Z,39.90
2019-04-10T15:42:54.553Z,37.83
2019-04-10T15:45:40.272Z,40.58
2019-04-10T15:48:33.640Z,43.10
2019-04-10T15:51:22.442Z,39.83
2019-04-10T15:54:19.628Z,38.60
2019-04-10T15:57:14.203Z,40.40
2019-04-10T16:00:08.549Z,47.03
2019-04-10T16:03:01.361Z,40.50
2019-04-10T16:05:55.732Z,38.95
2019-04-10T16:08:48.547Z,36.85
2019-04-10T16:12:08.689Z,43.42
2019-04-10T16:18:13.819Z,37.80
2019-04-10T16:21:08.214Z,44.65
2019-04-10T16:24:06.645Z,41.53
2019-04-10T16:26:59.984Z,37.90
2019-04-10T16:29:51.853Z,40.92
2019-04-10T16:32:46.719Z,46.13
2019-04-10T16:35:40.271Z,40.58
2019-04-10T16:38:34.272Z,38.20
2019-04-10T16:41:29.661Z,41.23
2019-04-10T16:44:17.681Z,39.73
2019-04-10T16:47:12.113Z,39.67
2019-04-10T16:50:13.240Z,38.10
2019-04-10T16:53:07.820Z,40.38
2019-04-10T16:56:01.648Z,43.05
2019-04-10T16:59:00.493Z,37.93
2019-04-10T17:01:53.261Z,39.78
2019-04-10T17:04:48.049Z,49.50
2019-04-10T17:07:45.133Z,39.70
2019-04-10T17:10:34.584Z,38.92
2019-04-10T17:13:31.501Z,39.15
2019-04-10T17:16:25.822Z,40.15
2019-04-10T17:20:12.144Z,39.73
2019-04-10T17:26:32.933Z,35.73
2019-04-10T17:29:27.265Z,36.65
2019-04-10T17:32:19.339Z,40.70
2019-04-10T17:35:14.261Z,39.95
2019-04-10T17:38:07.601Z,36.58
2019-04-10T17:41:00.306Z,42.90
2019-04-10T17:43:51.642Z,38.83
2019-04-10T17:46:47.047Z,37.23
2019-04-10T17:49:41.413Z,41.40
2019-04-10T17:52:37.534Z,42.85
2019-04-10T17:55:29.014Z,39.90
2019-04-10T17:58:23.853Z,41.05
2019-04-10T18:01:18.864Z,37.40
2019-04-10T18:04:12.025Z,31.75
2019-04-10T18:07:06.003Z,36.40
2019-04-10T18:10:00.941Z,37.90
2019-04-10T18:12:54.723Z,38.02
2019-04-10T18:15:50.386Z,41.75
2019-04-10T18:18:42.412Z,30.68
2019-04-10T18:21:35.725Z,28.55
2019-04-10T18:24:28.788Z,31.57
2019-04-10T18:30:24.369Z,28.90
2019-04-10T18:33:18.306Z,31.40
2019-04-10T18:36:11.757Z,26.62
2019-04-10T18:38:59.898Z,33.58
2019-04-10T18:41:54.050Z,28.67
2019-04-10T18:44:47.611Z,29.30
2019-04-10T18:47:41.718Z,26.25
2019-04-10T18:50:34.035Z,31.62
2019-04-10T18:53:26.778Z,26.77
2019-04-10T18:56:20.743Z,32.78
2019-04-10T18:59:28.899Z,31.30
2019-04-10T19:02:43.564Z,28.98
2019-04-10T19:05:56.281Z,32.73
2019-04-10T19:09:10.193Z,24.52
2019-04-10T19:11:57.314Z,26.30
2019-04-10T19:15:06.472Z,32.10
2019-04-10T19:18:09.592Z,28.90
2019-04-10T19:24:08.139Z,26.57
2019-04-10T19:27:02.391Z,26.00
2019-04-10T19:29:57.069Z,35.40
2019-04-10T19:32:48.392Z,27.15
2019-04-10T19:35:51.152Z,26.02
2019-04-10T19:38:45.344Z,24.70
2019-04-10T19:41:45.457Z,26.00
2019-04-10T19:44:47.551Z,25.35
2019-04-10T19:47:51.100Z,23.07
2019-04-10T19:54:05.529Z,31.42
2019-04-10T19:56:57.095Z,30.12
2019-04-10T19:59:50.656Z,23.00
2019-04-10T20:02:48.947Z,25.37
2019-04-10T20:05:41.511Z,23.70
2019-04-10T20:08:35.496Z,24.18
2019-04-10T20:11:44.712Z,35.30
2019-04-10T20:17:40.208Z,25.05
2019-04-10T20:20:33.521Z,32.15
2019-04-10T20:23:28.110Z,27.15
2019-04-10T20:26:25.244Z,24.77
2019-04-10T20:29:19.089Z,26.85
2019-04-10T20:32:23.411Z,27.42
2019-04-10T20:35:30.366Z,26.33
2019-04-10T20:38:20.782Z,26.25
2019-04-10T20:41:26.751Z,24.12
2019-04-10T20:44:22.698Z,27.40
2019-04-10T20:47:26.724Z,30.82
2019-04-10T20:50:34.205Z,27.00
2019-04-10T20:53:36.494Z,30.00
2019-04-10T20:56:30.678Z,22.95
2019-04-10T20:59:24.369Z,24.07
2019-04-10T21:02:13.576Z,23.75
2019-04-10T21:05:06.232Z,28.65
2019-04-10T21:07:59.886Z,26.25
2019-04-10T21:10:54.726Z,32.28
2019-04-10T21:13:47.372Z,29.50
2019-04-10T21:20:02.321Z,26.07
2019-04-10T21:22:55.601Z,22.58
2019-04-10T21:25:47.760Z,26.30
2019-04-10T21:28:41.578Z,37.10
2019-04-10T21:32:01.081Z,25.77
2019-04-10T21:34:57.550Z,24.95
2019-04-10T21:37:59.147Z,27.50
2019-04-10T21:40:51.957Z,26.35
2019-04-10T21:43:45.520Z,26.50
2019-04-10T21:46:41.155Z,23.42
2019-04-10T21:49:35.810Z,22.52
2019-04-10T21:52:27.756Z,23.05
2019-04-10T21:55:21.010Z,22.60
2019-04-10T21:58:25.900Z,24.27
2019-04-10T22:01:20.235Z,30.25
2019-04-10T22:04:13.294Z,20.92
2019-04-10T22:07:24.026Z,18.70
2019-04-10T22:10:28.594Z,24.60
2019-04-10T22:13:24.002Z,20.48
2019-04-10T22:16:19.766Z,24.00
2019-04-10T22:19:15.189Z,19.10
2019-04-10T22:22:11.252Z,23.38
2019-04-10T22:25:03.412Z,17.52
2019-04-10T22:27:56.908Z,18.65
2019-04-10T22:30:50.644Z,21.65
2019-04-10T22:33:44.685Z,20.50
2019-04-10T22:36:37.879Z,19.70
2019-04-10T22:39:43.981Z,16.42
2019-04-10T22:42:45.582Z,20.68
2019-04-10T22:45:33.678Z,22.73
2019-04-10T22:48:26.987Z,21.65
2019-04-10T22:51:21.425Z,20.20
2019-04-10T22:54:14.895Z,20.92
2019-04-10T22:57:08.463Z,18.57
2019-04-10T23:00:03.301Z,20.72
2019-04-10T23:03:11.449Z,18.10
2019-04-10T23:06:17.346Z,14.63
2019-04-10T23:09:11.904Z,18.05
2019-04-10T23:12:14.461Z,19.45
2019-04-10T23:15:04.091Z,15.85
2019-04-10T23:17:59.267Z,17.27
2019-04-10T23:24:09.550Z,14.60
2019-04-10T23:27:04.050Z,17.40
2019-04-10T23:29:57.356Z,18.55
2019-04-10T23:33:01.934Z,20.30
2019-04-10T23:35:57.960Z,17.90
2019-04-10T23:39:06.089Z,17.62
2019-04-10T23:42:04.549Z,14.85
2019-04-10T23:44:57.424Z,14.33
2019-04-10T23:47:46.434Z,17.20
2019-04-10T23:50:38.625Z,17.02
2019-04-10T23:53:31.250Z,17.42
2019-04-10T23:56:21.834Z,16.27
